Time;durP1;ratioP1;P1;durP2;ratioP2;P2;SDS_P1;SDS_P2;PMS_P1;PMS_P2;Temp;Humidity;BMP_temperature;BMP_pressure;BME280_temperature;BME280_humidity;BME280_pressure;Samples;Min_cycle;Max_cycle;Signal;HPM_P1;HPM_P2
2024/03/12 00:00:06;;;;;;;28.80;13.77;;;;;;;12.15;83.92;99093.69;5046753;28;19916;-26
2024/03/12 00:02:34;;;;;;;23.53;12.90;;;;;;;11.66;85.84;99083.09;5051796;28;20086;-29
2024/03/12 00:05:08;;;;;;;25.42;12.50;;;;;;;11.95;85.27;99085.97;5051635;28;20674;-27
2024/03/12 00:07:34;;;;;;;19.40;11.98;;;;;;;11.93;84.84;99082.72;5051654;28;20029;-27
2024/03/12 00:10:00;;;;;;;18.30;10.50;;;;;;;11.90;84.82;99081.34;5051696;28;20024;-26
2024/03/12 00:12:26;;;;;;;19.15;10.65;;;;;;;11.89;85.22;99078.88;5052009;28;20055;-26
2024/03/12 00:14:52;;;;;;;21.67;12.40;;;;;;;11.97;85.31;99083.09;5051454;28;20035;-27
2024/03/12 00:17:19;;;;;;;24.05;12.63;;;;;;;11.87;85.48;99081.75;5051348;28;20024;-26
2024/03/12 00:19:45;;;;;;;23.38;13.40;;;;;;;12.06;84.51;99071.06;5051586;28;20016;-26
2024/03/12 00:22:12;;;;;;;23.20;12.70;;;;;;;12.04;84.94;99062.47;5051278;28;20027;-26
2024/03/12 00:24:40;;;;;;;22.85;11.90;;;;;;;12.06;84.28;99063.88;5051382;28;20033;-28
2024/03/12 00:27:06;;;;;;;19.83;12.25;;;;;;;12.08;84.01;99059.09;5050816;28;20044;-26
2024/03/12 00:29:32;;;;;;;22.50;12.73;;;;;;;12.08;84.14;99056.44;5051370;28;20063;-26
2024/03/12 00:31:58;;;;;;;23.27;13.23;;;;;;;11.90;84.97;99053.88;5051349;28;20035;-26
2024/03/12 00:34:25;;;;;;;26.45;14.25;;;;;;;11.96;85.32;99052.97;5051054;28;20029;-27
2024/03/12 00:36:52;;;;;;;25.35;14.95;;;;;;;12.04;84.70;99043.81;5051282;28;20017;-26
2024/03/12 00:39:17;;;;;;;23.83;14.55;;;;;;;12.25;83.00;99050.44;5051159;28;20017;-28
2024/03/12 00:41:43;;;;;;;25.52;14.68;;;;;;;12.03;84.31;99058.16;5047211;28;20096;-26
2024/03/12 00:44:08;;;;;;;30.50;15.40;;;;;;;11.74;86.06;99050.78;5031254;28;20063;-27
2024/03/12 00:46:34;;;;;;;33.60;15.93;;;;;;;11.93;85.08;99051.53;5048054;28;20025;-27
2024/03/12 00:48:59;;;;;;;25.40;15.25;;;;;;;11.93;85.00;99053.41;5051169;28;20032;-27
2024/03/12 00:51:26;;;;;;;28.40;16.38;;;;;;;11.76;85.31;99025.75;5050777;28;20025;-27
2024/03/12 00:53:51;;;;;;;29.98;16.90;;;;;;;11.61;85.91;99011.00;5050995;28;20020;-27
2024/03/12 00:56:17;;;;;;;33.30;15.50;;;;;;;11.58;86.46;99022.13;5050811;28;20075;-27
2024/03/12 00:58:42;;;;;;;27.48;16.48;;;;;;;11.35;87.95;99015.69;5050907;28;20079;-27
2024/03/12 01:01:14;;;;;;;27.92;16.70;;;;;;;11.38;87.58;99010.94;5051076;28;20028;-27
2024/03/12 01:03:42;;;;;;;26.55;16.23;;;;;;;11.41;88.05;99019.28;5051318;28;20067;-26
2024/03/12 01:06:11;;;;;;;31.08;16.45;;;;;;;11.14;88.43;99003.66;5050976;28;20056;-27
2024/03/12 01:08:37;;;;;;;29.23;16.13;;;;;;;11.26;88.78;98992.25;5051328;28;20072;-27
2024/03/12 01:11:03;;;;;;;25.52;15.25;;;;;;;11.22;88.20;98994.53;5051032;28;20146;-28
2024/03/12 01:13:29;;;;;;;25.17;14.38;;;;;;;11.17;88.79;99002.38;5050972;28;20036;-27
2024/03/12 01:15:54;;;;;;;24.50;14.52;;;;;;;11.39;87.71;99016.03;5051303;28;20033;-27
2024/03/12 01:18:20;;;;;;;24.23;14.85;;;;;;;11.64;86.99;99012.41;5051114;28;20025;-26
2024/03/12 01:20:46;;;;;;;24.10;14.40;;;;;;;11.44;87.04;99002.03;5051051;28;20025;-26
2024/03/12 01:23:13;;;;;;;25.92;14.65;;;;;;;11.42;87.67;98998.78;5051256;28;20113;-27
2024/03/12 01:25:41;;;;;;;25.95;14.77;;;;;;;11.48;86.59;98988.03;5050955;28;20418;-27
2024/03/12 01:28:10;;;;;;;23.73;14.57;;;;;;;11.53;87.03;98982.00;5050964;28;20033;-27
2024/03/12 01:30:36;;;;;;;26.57;13.80;;;;;;;11.51;87.38;98978.78;5051386;28;20036;-27
2024/03/12 01:33:02;;;;;;;24.80;13.50;;;;;;;11.90;85.81;98981.91;5051123;28;20150;-27
2024/03/12 01:35:30;;;;;;;21.25;13.77;;;;;;;11.75;85.59;98992.97;5051203;28;20083;-27
2024/03/12 01:37:57;;;;;;;23.20;13.95;;;;;;;11.91;85.21;98986.97;5051195;28;20079;-27
2024/03/12 01:40:25;;;;;;;23.63;13.30;;;;;;;11.75;86.05;98976.97;5050841;28;20037;-27
2024/03/12 01:42:53;;;;;;;25.58;14.00;;;;;;;11.74;86.57;98978.81;5050635;28;20480;-27
2024/03/12 01:45:22;;;;;;;24.98;14.15;;;;;;;11.74;86.39;98975.34;5051049;28;20028;-28
2024/03/12 01:47:52;;;;;;;26.55;13.63;;;;;;;11.81;86.31;98969.91;5050772;28;20143;-27
2024/03/12 01:50:18;;;;;;;;;;;;;;;11.76;86.71;98959.91;5032875;28;20401;-28
2024/03/12 01:52:47;;;;;;;22.20;14.38;;;;;;;11.48;87.52;98974.72;5030885;28;20013;-27
2024/03/12 01:55:14;;;;;;;33.30;18.58;;;;;;;11.50;88.43;98988.63;5030861;28;20116;-27
2024/03/12 01:57:41;;;;;;;51.90;27.52;;;;;;;11.43;89.25;98992.44;5031076;28;20026;-27
2024/03/12 02:00:13;;;;;;;55.67;27.98;;;;;;;11.46;89.46;99013.25;5030872;28;20036;-27
2024/03/12 02:02:39;;;;;;;53.65;28.75;;;;;;;11.24;90.86;99005.78;5030806;28;20029;-27
2024/03/12 02:05:05;;;;;;;52.25;33.40;;;;;;;11.33;90.67;99006.28;5030834;28;20112;-26
2024/03/12 02:07:30;;;;;;;32.33;20.55;;;;;;;11.26;90.60;99006.38;5030576;28;20374;-27
2024/03/12 02:09:56;;;;;;;33.60;17.17;;;;;;;11.22;91.51;98996.41;5030877;28;20079;-27
2024/03/12 02:12:22;;;;;;;27.70;16.60;;;;;;;11.09;94.82;98997.38;5031132;28;20059;-27
2024/03/12 02:14:49;;;;;;;29.85;16.75;;;;;;;11.12;95.31;99026.25;5030650;28;20029;-26
2024/03/12 02:17:14;;;;;;;32.13;17.13;;;;;;;10.95;96.44;99050.00;5030597;28;20375;-26
2024/03/12 02:19:40;;;;;;;29.23;17.08;;;;;;;11.19;96.42;99050.09;5030641;28;20033;-26
2024/03/12 02:22:05;;;;;;;32.63;17.90;;;;;;;11.40;95.38;99065.59;5030577;28;20032;-26
2024/03/12 02:24:32;;;;;;;29.33;17.50;;;;;;;11.13;96.16;99052.63;5031310;28;20112;-26
2024/03/12 02:26:57;;;;;;;31.27;18.70;;;;;;;10.93;98.67;99063.53;5034269;28;20410;-26
2024/03/12 02:29:22;;;;;;;32.58;18.60;;;;;;;11.02;99.71;99060.56;5034207;28;20029;-26
2024/03/12 02:31:48;;;;;;;33.50;18.38;;;;;;;10.85;100.00;99058.50;5050617;28;20120;-26
2024/03/12 02:34:13;;;;;;;33.35;19.05;;;;;;;10.72;100.00;99040.81;5053802;28;20385;-26
2024/03/12 02:36:40;;;;;;;31.27;18.50;;;;;;;11.02;98.98;99036.59;5054117;28;20336;-26
2024/03/12 02:39:06;;;;;;;32.90;18.25;;;;;;;11.06;98.83;99057.25;5054253;28;20029;-26
2024/03/12 02:41:35;;;;;;;37.85;19.75;;;;;;;11.16;98.63;99059.38;5054119;28;20039;-26
2024/03/12 02:44:01;;;;;;;31.80;19.40;;;;;;;10.80;100.00;99031.72;5054154;28;20059;-26
2024/03/12 02:46:27;;;;;;;35.92;19.02;;;;;;;10.96;100.00;99032.97;5053742;28;20307;-26
2024/03/12 02:48:52;;;;;;;32.97;19.10;;;;;;;10.96;100.00;99052.41;5053644;28;20032;-26
2024/03/12 02:51:17;;;;;;;33.92;18.65;;;;;;;11.12;100.00;99050.22;5054272;28;20059;-27
2024/03/12 02:53:43;;;;;;;32.35;19.40;;;;;;;11.05;100.00;99052.94;5053843;28;20493;-26
2024/03/12 02:56:08;;;;;;;36.92;20.45;;;;;;;10.94;100.00;99062.47;5053397;28;20125;-26
2024/03/12 02:58:35;;;;;;;34.92;20.45;;;;;;;10.76;100.00;99049.97;5053650;28;20036;-27
2024/03/12 03:01:01;;;;;;;32.33;18.50;;;;;;;10.77;100.00;99053.44;5053515;28;20058;-26
2024/03/12 03:03:27;;;;;;;31.27;17.95;;;;;;;10.46;100.00;99047.22;5053514;28;20116;-26
2024/03/12 03:05:52;;;;;;;29.48;17.02;;;;;;;10.57;100.00;99053.66;5053513;28;20036;-27
2024/03/12 03:08:18;;;;;;;32.35;18.90;;;;;;;10.68;100.00;99054.78;5053750;28;20100;-27
2024/03/12 03:10:44;;;;;;;36.90;19.83;;;;;;;10.46;100.00;99060.53;5035648;28;20040;-27
2024/03/12 03:13:11;;;;;;;32.17;17.77;;;;;;;10.62;100.00;99053.00;5033704;28;20083;-26
2024/03/12 03:15:36;;;;;;;31.58;18.65;;;;;;;10.63;100.00;99067.94;5033218;28;20512;-25
2024/03/12 03:18:01;;;;;;;31.30;18.17;;;;;;;10.68;100.00;99076.06;5033399;28;20029;-26
2024/03/12 03:20:27;;;;;;;22.95;12.98;;;;;;;10.42;100.00;99069.97;5038403;28;20519;-25
2024/03/12 03:22:52;;;;;;;23.73;12.27;;;;;;;10.46;100.00;99081.00;5053383;28;20025;-25
2024/03/12 03:25:18;;;;;;;20.45;11.43;;;;;;;10.63;100.00;99081.25;5051461;28;20029;-26
2024/03/12 03:27:43;;;;;;;19.25;11.15;;;;;;;10.58;100.00;99084.56;5052972;28;20044;-25
2024/03/12 03:30:12;;;;;;;22.58;12.32;;;;;;;10.56;100.00;99079.44;5053269;28;20127;-25
2024/03/12 03:32:39;;;;;;;20.70;11.48;;;;;;;10.55;100.00;99085.00;5053046;28;20044;-26
2024/03/12 03:35:05;;;;;;;18.95;10.43;;;;;;;10.70;100.00;99089.97;5052992;28;20036;-26
2024/03/12 03:37:35;;;;;;;16.73;9.32;;;;;;;10.88;100.00;99082.00;5052742;28;20045;-26
2024/03/12 03:40:04;;;;;;;15.23;8.70;;;;;;;10.53;100.00;99079.09;5043877;28;20091;-26
2024/03/12 03:42:32;;;;;;;12.23;7.88;;;;;;;10.75;100.00;99088.25;5033203;28;20116;-26
2024/03/12 03:44:58;;;;;;;13.27;7.32;;;;;;;10.78;100.00;99103.00;5033176;28;20342;-26
2024/03/12 03:47:23;;;;;;;10.10;6.35;;;;;;;10.73;100.00;99113.47;5033182;28;20093;-26
2024/03/12 03:49:49;;;;;;;12.20;5.88;;;;;;;10.61;100.00;99112.59;5032582;28;20367;-26
2024/03/12 03:52:14;;;;;;;10.18;5.72;;;;;;;10.52;100.00;99123.47;5032372;28;20219;-26
2024/03/12 03:54:40;;;;;;;8.98;5.32;;;;;;;10.53;100.00;99121.66;5032795;28;20033;-26
2024/03/12 03:57:05;;;;;;;8.10;5.28;;;;;;;10.84;100.00;99141.22;5032804;28;20081;-26
2024/03/12 03:59:31;;;;;;;8.68;5.50;;;;;;;10.53;100.00;99140.28;5032589;28;20055;-25
2024/03/12 04:01:56;;;;;;;7.13;4.75;;;;;;;10.40;100.00;99151.84;5032645;28;20151;-26
2024/03/12 04:04:22;;;;;;;9.32;4.82;;;;;;;10.31;100.00;99159.25;5032587;28;20025;-26
2024/03/12 04:06:48;;;;;;;7.18;3.95;;;;;;;10.35;100.00;99152.47;5032416;28;20474;-27
2024/03/12 04:09:15;;;;;;;7.57;4.00;;;;;;;10.17;100.00;99137.25;5032436;28;20021;-25
2024/03/12 04:11:41;;;;;;;8.45;4.60;;;;;;;10.41;100.00;99157.97;5032767;28;20025;-25
2024/03/12 04:14:09;;;;;;;5.38;3.80;;;;;;;10.67;100.00;99163.06;5032080;28;20056;-26
2024/03/12 04:16:34;;;;;;;7.70;3.53;;;;;;;10.44;100.00;99163.66;5032460;28;20052;-26
2024/03/12 04:19:00;;;;;;;8.82;3.78;;;;;;;10.72;100.00;99160.56;5032050;28;20052;-25
2024/03/12 04:21:26;;;;;;;5.95;3.10;;;;;;;10.57;100.00;99152.91;5032275;28;20029;-26
2024/03/12 04:23:52;;;;;;;8.65;4.30;;;;;;;10.70;100.00;99152.00;5031529;28;20108;-26
2024/03/12 04:26:19;;;;;;;5.85;3.50;;;;;;;10.73;100.00;99150.75;5031571;28;20144;-26
2024/03/12 04:28:45;;;;;;;5.22;3.22;;;;;;;10.71;100.00;99144.81;5031211;28;20092;-27
2024/03/12 04:31:11;;;;;;;7.55;3.47;;;;;;;10.61;100.00;99147.97;5031336;28;20076;-26
2024/03/12 04:33:36;;;;;;;8.40;5.32;;;;;;;10.64;100.00;99160.03;5031361;28;20243;-26
2024/03/12 04:36:02;;;;;;;4.35;2.63;;;;;;;10.61;100.00;99161.28;5031393;28;20061;-26
2024/03/12 04:38:30;;;;;;;7.82;4.00;;;;;;;10.48;100.00;99159.53;5031062;28;20075;-26
2024/03/12 04:40:56;;;;;;;5.10;2.80;;;;;;;10.49;100.00;99145.22;5046477;28;20473;-27
2024/03/12 04:43:22;;;;;;;6.00;3.08;;;;;;;10.60;100.00;99130.38;5049385;28;20029;-27
2024/03/12 04:45:47;;;;;;;5.85;2.53;;;;;;;10.59;100.00;99141.25;5049391;28;20036;-27
2024/03/12 04:48:12;;;;;;;4.50;2.83;;;;;;;10.57;100.00;99115.66;5048763;28;20025;-26
2024/03/12 04:50:38;;;;;;;8.15;2.70;;;;;;;10.58;100.00;99111.16;5047511;28;20024;-26
2024/03/12 04:53:07;;;;;;;4.43;2.85;;;;;;;10.62;100.00;99116.84;5049003;28;20033;-27
2024/03/12 04:55:34;;;;;;;5.32;2.75;;;;;;;10.62;100.00;99098.22;5050698;28;20094;-26
2024/03/12 04:58:00;;;;;;;6.45;2.90;;;;;;;10.82;100.00;99101.53;5050897;28;20036;-26
2024/03/12 05:00:25;;;;;;;5.07;2.95;;;;;;;10.79;100.00;99101.13;5050604;28;20029;-27
2024/03/12 05:02:50;;;;;;;6.22;3.05;;;;;;;10.68;100.00;99100.00;5051067;28;20434;-26
2024/03/12 05:05:20;;;;;;;4.82;3.17;;;;;;;10.67;100.00;99093.06;5051052;28;20465;-26
2024/03/12 05:07:47;;;;;;;5.25;3.03;;;;;;;10.61;100.00;99092.09;5050852;28;20079;-28
2024/03/12 05:10:14;;;;;;;5.07;2.90;;;;;;;10.52;100.00;99085.44;5050711;28;20028;-27
2024/03/12 05:12:40;;;;;;;6.28;3.30;;;;;;;10.58;100.00;99079.22;5050903;28;20028;-26
2024/03/12 05:15:07;;;;;;;7.28;3.75;;;;;;;10.80;100.00;99084.97;5051128;28;20028;-27
2024/03/12 05:17:33;;;;;;;4.18;3.03;;;;;;;11.09;100.00;99088.72;5051198;28;20072;-28
2024/03/12 05:19:59;;;;;;;4.72;3.30;;;;;;;11.09;100.00;99101.22;5050864;28;20037;-27
2024/03/12 05:22:24;;;;;;;4.60;2.75;;;;;;;10.93;100.00;99111.44;5050533;28;20040;-28
2024/03/12 05:24:50;;;;;;;4.80;2.80;;;;;;;11.09;98.61;99126.00;5051322;28;20037;-28
2024/03/12 05:27:23;;;;;;;5.70;2.88;;;;;;;10.90;99.62;99119.06;5050604;28;20049;-26
2024/03/12 05:29:53;;;;;;;4.35;2.40;;;;;;;11.04;99.35;99111.72;5049357;28;20029;-27
2024/03/12 05:32:21;;;;;;;3.33;2.40;;;;;;;11.30;99.29;99105.28;5049556;28;20098;-28
2024/03/12 05:34:47;;;;;;;11.05;7.50;;;;;;;13.27;100.00;99116.75;5050795;28;20065;-27
2024/03/12 05:37:28;;;;;;;3.88;2.17;;;;;;;13.18;92.41;99109.34;5050818;28;20049;-27
2024/03/12 05:48:10;;;;;;;10.43;6.88;;;;;;;11.42;96.17;99089.34;5050610;28;20036;-28
2024/03/12 05:50:39;;;;;;;3.97;2.85;;;;;;;11.58;95.84;99079.94;5050764;28;20029;-27
2024/03/12 05:53:05;;;;;;;4.78;2.80;;;;;;;11.53;95.50;99078.75;5050428;28;20035;-28
2024/03/12 05:55:30;;;;;;;4.63;3.13;;;;;;;11.47;95.46;99061.00;5050221;28;20037;-27
2024/03/12 05:57:55;;;;;;;12.23;5.95;;;;;;;11.57;96.02;99068.44;5050029;28;20017;-27
2024/03/12 06:00:21;;;;;;;5.90;3.80;;;;;;;11.59;95.87;99066.38;5054105;28;20025;-27
2024/03/12 06:02:46;;;;;;;5.70;3.78;;;;;;;11.57;96.37;99060.44;5054523;28;20037;-26
2024/03/12 06:05:12;;;;;;;5.43;3.30;;;;;;;11.57;97.05;99076.44;5054894;28;20029;-27
2024/03/12 06:07:40;;;;;;;7.38;5.20;;;;;;;11.47;97.52;99071.66;5054697;28;20087;-28
2024/03/12 06:10:07;;;;;;;10.15;4.30;;;;;;;11.53;98.22;99085.94;5054538;28;20032;-26
2024/03/12 06:12:32;;;;;;;7.57;3.88;;;;;;;11.32;99.54;99087.22;5054182;28;20067;-28
2024/03/12 06:14:59;;;;;;;4.78;3.40;;;;;;;11.23;100.00;99096.56;5054892;28;20041;-28
2024/03/12 06:17:25;;;;;;;4.28;2.88;;;;;;;11.14;99.45;99098.72;5054967;28;20501;-27
2024/03/12 06:19:50;;;;;;;5.68;2.90;;;;;;;11.15;98.46;99082.50;5054493;28;20035;-28
2024/03/12 06:22:17;;;;;;;8.10;3.88;;;;;;;11.20;99.52;99083.72;5054367;28;20028;-29
2024/03/12 06:24:42;;;;;;;5.07;3.28;;;;;;;11.15;100.00;99066.53;5054412;28;20060;-28
2024/03/12 06:27:08;;;;;;;4.28;3.50;;;;;;;11.51;98.11;99072.84;5053923;28;20049;-28
2024/03/12 06:29:33;;;;;;;5.90;3.60;;;;;;;11.27;98.83;99069.28;5054333;28;20116;-28
2024/03/12 06:31:59;;;;;;;4.80;3.60;;;;;;;11.17;99.21;99050.31;5054506;28;20017;-28
2024/03/12 06:34:28;;;;;;;7.45;3.90;;;;;;;11.30;99.19;99063.47;5040210;28;20041;-27
2024/03/12 06:36:57;;;;;;;9.10;4.47;;;;;;;11.23;100.00;99070.75;5045333;28;20462;-27
2024/03/12 06:39:32;;;;;;;7.13;4.32;;;;;;;11.10;98.78;99076.22;5049894;28;20033;-27
2024/03/12 06:42:01;;;;;;;5.22;3.60;;;;;;;10.89;100.00;99070.31;5047396;28;20174;-27
2024/03/12 06:44:26;;;;;;;6.57;3.20;;;;;;;11.01;100.00;99080.25;5054143;28;20039;-28
2024/03/12 06:46:52;;;;;;;3.92;2.92;;;;;;;11.07;99.37;99098.78;5054505;28;20025;-28
2024/03/12 06:49:20;;;;;;;4.70;3.00;;;;;;;11.25;97.93;99095.31;5054199;28;20028;-27
2024/03/12 06:51:50;;;;;;;3.95;2.45;;;;;;;11.39;95.23;99103.94;5053994;28;20104;-40
2024/03/12 06:54:16;;;;;;;5.10;2.10;;;;;;;11.33;96.97;99097.66;5053916;28;20406;-40
2024/03/12 06:56:42;;;;;;;3.00;1.98;;;;;;;11.66;96.15;99099.06;5054049;28;20033;-42
2024/03/12 06:59:11;;;;;;;3.28;2.30;;;;;;;11.73;95.50;99109.66;5054067;28;20037;-39
2024/03/12 07:01:40;;;;;;;3.65;1.88;;;;;;;11.68;94.11;99117.50;5054158;28;20158;-27
2024/03/12 07:04:08;;;;;;;5.75;3.65;;;;;;;11.87;94.16;99116.41;5054022;28;20464;-45
2024/03/12 07:06:34;;;;;;;7.90;4.88;;;;;;;11.79;94.84;99108.75;5053556;28;20048;-41
2024/03/12 07:09:01;;;;;;;11.68;6.50;;;;;;;11.59;96.94;99111.66;5053363;28;20405;-40
2024/03/12 07:11:26;;;;;;;11.43;5.93;;;;;;;11.72;96.57;99113.34;5043049;28;20032;-40
2024/03/12 07:14:01;;;;;;;5.72;4.68;;;;;;;11.68;96.07;99107.66;5053786;28;20036;-41
2024/03/12 07:16:27;;;;;;;7.07;4.93;;;;;;;11.62;95.81;99099.78;5047187;28;20036;-41
2024/03/12 07:18:55;;;;;;;8.13;5.00;;;;;;;11.48;95.80;99083.97;5043506;28;20405;-39
2024/03/12 07:21:22;;;;;;;10.20;5.47;;;;;;;11.79;94.91;99095.41;5051391;28;20059;-41
2024/03/12 07:23:49;;;;;;;8.32;4.85;;;;;;;11.89;94.93;99094.88;5039270;28;20417;-42
2024/03/12 07:26:15;;;;;;;5.55;3.80;;;;;;;11.95;94.21;99088.66;5053063;28;20049;-42
2024/03/12 07:28:42;;;;;;;10.32;5.93;;;;;;;11.97;94.06;99083.91;5052941;28;20090;-42
2024/03/12 07:31:08;;;;;;;3.97;2.50;;;;;;;12.19;91.57;99070.03;5052760;28;20508;-41
2024/03/12 07:33:33;;;;;;;3.70;2.40;;;;;;;12.01;93.93;99060.25;5052459;28;20032;-41
2024/03/12 07:35:59;;;;;;;6.15;3.83;;;;;;;12.33;92.82;99072.22;5052807;28;20075;-40
2024/03/12 07:38:27;;;;;;;4.93;2.78;;;;;;;12.93;91.81;99077.53;5052859;28;20013;-40
2024/03/12 07:40:53;;;;;;;5.85;3.80;;;;;;;13.30;89.87;99078.88;5036201;28;20021;-41
2024/03/12 07:43:18;;;;;;;6.47;3.47;;;;;;;15.24;100.00;99074.19;5035794;28;20409;-44
2024/03/12 07:45:48;;;;;;;3.28;2.60;;;;;;;15.86;78.58;99074.84;5044470;28;20508;-40
2024/03/12 07:48:14;;;;;;;4.20;2.50;;;;;;;15.71;77.27;99062.09;5051510;28;20021;-40
2024/03/12 07:50:42;;;;;;;6.15;3.30;;;;;;;15.50;75.64;99061.88;5052952;28;20099;-44
2024/03/12 07:53:08;;;;;;;3.53;2.28;;;;;;;15.00;76.19;99063.72;5052454;28;20032;-43
2024/03/12 07:55:35;;;;;;;2.50;1.73;;;;;;;14.61;75.77;99065.59;5051204;28;20025;-41
2024/03/12 07:58:02;;;;;;;3.70;2.00;;;;;;;15.06;76.34;99053.88;5051904;28;20025;-29
2024/03/12 08:00:28;;;;;;;4.65;2.40;;;;;;;15.28;75.85;99063.78;5037956;28;20036;-42
2024/03/12 08:02:54;;;;;;;4.35;2.90;;;;;;;15.57;76.80;99065.16;5052508;28;20020;-42
2024/03/12 08:05:19;;;;;;;7.32;4.30;;;;;;;16.01;75.28;99066.91;5052605;28;20052;-41
2024/03/12 08:07:44;;;;;;;3.58;2.00;;;;;;;15.95;71.78;99070.63;5052401;28;20021;-40
2024/03/12 08:10:12;;;;;;;5.82;2.20;;;;;;;16.44;70.83;99070.47;5052574;28;20443;-38
2024/03/12 08:12:39;;;;;;;4.00;2.45;;;;;;;16.66;70.55;99075.75;5052405;28;20155;-27
2024/03/12 08:15:06;;;;;;;5.22;2.72;;;;;;;17.36;66.99;99075.53;5052307;28;20028;-29
2024/03/12 08:17:32;;;;;;;3.08;2.55;;;;;;;16.90;66.19;99089.59;5052303;28;20017;-27
2024/03/12 08:19:58;;;;;;;2.22;1.92;;;;;;;16.80;65.33;99087.63;5052181;28;20400;-28
2024/03/12 08:22:23;;;;;;;2.72;2.03;;;;;;;17.38;64.96;99084.97;5051331;28;20099;-28
2024/03/12 08:24:50;;;;;;;5.57;2.17;;;;;;;17.43;63.87;99094.13;5052434;28;20159;-29
2024/03/12 08:27:18;;;;;;;2.15;1.55;;;;;;;17.56;63.38;99096.31;5051627;28;20513;-28
2024/03/12 08:29:43;;;;;;;2.60;1.70;;;;;;;17.24;64.39;99102.66;5047487;28;20065;-28
2024/03/12 08:32:09;;;;;;;3.17;2.10;;;;;;;17.72;63.61;99100.63;5032341;28;20113;-27
2024/03/12 08:34:36;;;;;;;2.00;1.73;;;;;;;17.27;65.76;99104.84;5045235;28;20045;-28
2024/03/12 08:37:03;;;;;;;7.25;2.60;;;;;;;17.59;64.74;99096.59;5042099;28;20480;-41
2024/03/12 08:39:28;;;;;;;4.70;3.05;;;;;;;17.89;65.20;99095.06;5051712;28;20017;-27
2024/03/12 08:41:54;;;;;;;1.85;1.30;;;;;;;17.65;62.25;99094.72;5051836;28;20028;-28
2024/03/12 08:44:20;;;;;;;1.75;1.13;;;;;;;17.64;62.39;99095.00;5051617;28;20021;-28
2024/03/12 08:46:47;;;;;;;3.72;1.50;;;;;;;18.03;62.84;99103.44;5052324;28;20017;-28
2024/03/12 08:49:12;;;;;;;4.03;1.90;;;;;;;18.24;62.91;99095.34;5045221;28;20017;-29
2024/03/12 08:51:39;;;;;;;3.72;2.00;;;;;;;18.12;61.85;99106.38;5051181;28;20033;-28
2024/03/12 08:54:08;;;;;;;1.85;1.10;;;;;;;18.58;58.79;99092.88;5051446;28;20056;-27
2024/03/12 08:56:36;;;;;;;2.08;1.50;;;;;;;18.59;59.25;99096.41;5051305;28;20493;-29
2024/03/12 08:59:01;;;;;;;2.38;1.58;;;;;;;18.48;59.38;99101.78;5051930;28;20021;-30
2024/03/12 09:01:26;;;;;;;2.20;1.40;;;;;;;18.12;60.30;99093.72;5049972;28;20092;-27
2024/03/12 09:03:52;;;;;;;3.30;1.90;;;;;;;18.49;60.32;99086.47;5037977;28;20029;-29
2024/03/12 09:06:21;;;;;;;4.10;2.58;;;;;;;18.83;61.90;99091.25;5051334;28;20021;-29
2024/03/12 09:08:46;;;;;;;4.80;2.93;;;;;;;19.03;60.01;99083.09;5051223;28;20017;-28
2024/03/12 09:11:17;;;;;;;5.80;2.58;;;;;;;19.21;60.54;99087.09;5050968;28;20039;-27
2024/03/12 09:13:44;;;;;;;2.72;1.45;;;;;;;18.84;57.86;99084.78;5051137;28;20025;-29
2024/03/12 09:16:12;;;;;;;3.25;1.80;;;;;;;18.99;58.83;99081.25;5051189;28;20031;-27
2024/03/12 09:18:42;;;;;;;7.68;1.52;;;;;;;18.62;59.61;99085.06;5051416;28;20021;-29
2024/03/12 09:21:09;;;;;;;3.38;1.80;;;;;;;18.35;60.06;99080.78;5050946;28;20089;-27
2024/03/12 09:23:35;;;;;;;2.38;1.65;;;;;;;18.22;60.16;99073.25;5051480;28;20028;-28
2024/03/12 09:26:00;;;;;;;4.82;1.90;;;;;;;18.24;60.16;99071.09;5050480;28;20045;-28
2024/03/12 09:28:26;;;;;;;1.92;1.50;;;;;;;18.70;59.13;99054.88;5050805;28;20067;-29
2024/03/12 09:30:54;;;;;;;2.95;1.75;;;;;;;18.48;58.95;99053.31;5051278;28;20409;-28
2024/03/12 09:33:19;;;;;;;2.85;1.35;;;;;;;18.49;59.24;99056.81;5051680;28;20123;-27
2024/03/12 09:35:44;;;;;;;3.22;1.60;;;;;;;18.41;59.99;99058.19;5054871;28;20056;-27
2024/03/12 09:38:11;;;;;;;3.92;1.42;;;;;;;18.44;58.46;99046.84;5054964;28;20016;-27
2024/03/12 09:40:36;;;;;;;3.88;1.50;;;;;;;18.01;60.28;99054.44;5054989;28;20040;-27
2024/03/12 09:43:04;;;;;;;2.63;1.45;;;;;;;18.05;60.33;99049.31;5055053;28;20025;-27
2024/03/12 09:45:29;;;;;;;6.85;1.90;;;;;;;18.41;59.66;99049.28;5054579;28;20025;-28
2024/03/12 09:47:56;;;;;;;5.43;2.25;;;;;;;18.08;60.39;99035.31;5045321;28;20025;-28
2024/03/12 09:50:23;;;;;;;4.78;1.60;;;;;;;17.83;62.15;99039.59;5035166;28;20017;-28
2024/03/12 09:52:49;;;;;;;3.88;1.73;;;;;;;17.95;63.05;99042.03;5034839;28;20033;-31
2024/03/12 09:55:17;;;;;;;2.55;1.70;;;;;;;18.74;60.65;99034.41;5035304;28;20025;-28
2024/03/12 09:57:44;;;;;;;2.28;1.60;;;;;;;19.20;57.71;99036.94;5046928;28;20071;-28
2024/03/12 10:00:15;;;;;;;5.65;2.38;;;;;;;19.06;59.88;99034.03;5052063;28;20513;-29
2024/03/12 10:02:41;;;;;;;2.17;1.90;;;;;;;19.11;58.07;99034.03;5050153;28;20599;-27
2024/03/12 10:05:09;;;;;;;4.43;2.88;;;;;;;18.81;58.80;99029.56;5037854;28;20112;-28
2024/03/12 10:07:36;;;;;;;4.97;2.50;;;;;;;19.39;56.96;99023.59;5037427;28;20399;-28
2024/03/12 10:10:09;;;;;;;3.33;2.10;;;;;;;19.62;57.03;99022.09;5050778;28;20489;-27
2024/03/12 10:12:35;;;;;;;6.25;2.58;;;;;;;19.10;58.30;99013.53;5052419;28;20504;-27
2024/03/12 10:15:01;;;;;;;8.13;3.70;;;;;;;18.92;58.80;99022.22;5050593;28;20055;-29
2024/03/12 10:17:26;;;;;;;3.67;2.15;;;;;;;19.03;58.92;99021.09;5044572;28;20071;-27
2024/03/12 10:20:07;;;;;;;5.03;2.17;;;;;;;19.06;59.67;99025.16;5038969;28;20104;-28
2024/03/12 10:22:32;;;;;;;2.50;1.55;;;;;;;17.88;62.71;99017.28;5041830;28;20409;-29
2024/03/12 10:25:10;;;;;;;4.28;1.48;;;;;;;17.62;63.55;99017.22;5053993;28;20033;-29
2024/03/12 10:27:51;;;;;;;3.15;1.38;;;;;;;17.88;62.68;99003.84;5053896;28;20048;-27
2024/03/12 10:30:24;;;;;;;2.85;1.73;;;;;;;17.77;63.54;99003.78;5052240;28;20017;-29
2024/03/12 10:32:50;;;;;;;3.83;1.30;;;;;;;17.75;62.52;99010.53;5054553;28;20028;-28
2024/03/12 10:35:21;;;;;;;2.05;1.15;;;;;;;17.74;63.24;99006.19;5054449;28;20029;-28
2024/03/12 10:37:50;;;;;;;3.17;1.67;;;;;;;17.82;63.59;99008.38;5054213;28;20138;-28
2024/03/12 10:40:20;;;;;;;2.88;1.30;;;;;;;17.81;62.34;99001.38;5045929;28;20121;-28
2024/03/12 10:42:54;;;;;;;1.75;1.40;;;;;;;17.63;63.28;99007.28;5053810;28;20087;-27
2024/03/12 10:45:21;;;;;;;1.80;1.00;;;;;;;18.00;61.69;99011.63;5053316;28;20029;-31
2024/03/12 10:47:48;;;;;;;4.53;1.10;;;;;;;17.54;63.42;99007.81;5045706;28;20030;-29
2024/03/12 10:50:16;;;;;;;2.22;1.38;;;;;;;17.55;61.85;99011.28;5033263;28;20120;-27
2024/03/12 10:52:43;;;;;;;2.65;1.50;;;;;;;17.38;63.10;99011.53;5034193;28;20021;-28
2024/03/12 10:55:10;;;;;;;1.52;1.30;;;;;;;17.77;61.64;99016.44;5033941;28;20026;-28
2024/03/12 10:57:37;;;;;;;2.85;1.40;;;;;;;17.18;63.29;99015.00;5033855;28;20022;-28
2024/03/12 11:00:07;;;;;;;2.42;1.40;;;;;;;17.25;61.96;99018.25;5033524;28;20482;-30
2024/03/12 11:02:35;;;;;;;2.85;1.58;;;;;;;17.08;62.33;99021.16;5033914;28;20207;-27
2024/03/12 11:05:02;;;;;;;3.33;1.52;;;;;;;17.01;63.04;99025.94;5033707;28;20025;-30
2024/03/12 11:07:30;;;;;;;2.30;1.70;;;;;;;16.84;64.88;99034.22;5048164;28;20052;-27
2024/03/12 11:09:56;;;;;;;2.95;1.90;;;;;;;17.12;64.67;99033.00;5053624;28;20025;-28
2024/03/12 11:12:23;;;;;;;3.20;2.20;;;;;;;17.00;65.25;99035.06;5050468;28;20017;-27
2024/03/12 11:14:53;;;;;;;6.57;3.03;;;;;;;17.15;65.91;99043.22;5046899;28;20083;-29
2024/03/12 11:17:27;;;;;;;6.43;2.97;;;;;;;16.90;67.20;99046.59;5042753;28;20385;-29
2024/03/12 11:19:53;;;;;;;5.47;3.40;;;;;;;16.73;67.38;99035.19;5043608;28;20174;-28
2024/03/12 11:22:20;;;;;;;5.35;3.30;;;;;;;16.94;67.05;99047.69;5047020;28;20110;-28
2024/03/12 11:24:48;;;;;;;5.13;3.70;;;;;;;16.95;67.76;99045.81;5053403;28;20025;-30
2024/03/12 11:27:28;;;;;;;5.38;3.53;;;;;;;16.97;69.15;99062.50;5052968;28;20047;-28
2024/03/12 11:30:11;;;;;;;8.02;4.20;;;;;;;16.18;75.86;99040.78;5053289;28;20040;-28
2024/03/12 11:32:57;;;;;;;5.35;3.90;;;;;;;16.47;77.34;99032.38;5052901;28;20020;-26